Time;durP1;ratioP1;P1;durP2;ratioP2;P2;SDS_P1;SDS_P2;PMS_P1;PMS_P2;Temp;Humidity;BMP_temperature;BMP_pressure;BME280_temperature;BME280_humidity;BME280_pressure;Samples;Min_cycle;Max_cycle;Signal;HPM_P1;HPM_P2
2023/10/12 00:02:09;;;;;;;5.40;4.90;;;;;;;12.16;61.60;95764.25;5100570;28;20192;-68
2023/10/12 00:04:38;;;;;;;5.38;4.88;;;;;;;12.11;62.22;95759.75;5100642;28;20207;-68
2023/10/12 00:07:15;;;;;;;5.18;4.68;;;;;;;12.08;62.25;95762.41;5100986;28;20188;-68
2023/10/12 00:09:48;;;;;;;5.57;5.07;;;;;;;12.06;62.36;95751.69;5100683;28;20242;-68
2023/10/12 00:12:21;;;;;;;5.15;4.63;;;;;;;12.05;62.18;95755.59;5100516;28;20291;-68
2023/10/12 00:14:54;;;;;;;6.00;5.15;;;;;;;12.02;62.28;95756.31;5100327;28;20196;-68
2023/10/12 00:17:23;;;;;;;6.13;5.25;;;;;;;12.00;61.94;95750.31;5100542;28;20188;-68
2023/10/12 00:19:51;;;;;;;6.13;4.88;;;;;;;11.97;62.58;95749.03;5100824;28;20224;-68
2023/10/12 00:22:24;;;;;;;5.30;4.80;;;;;;;11.96;62.20;95743.88;5100186;28;20200;-69
2023/10/12 00:24:53;;;;;;;6.35;5.00;;;;;;;11.90;62.29;95748.00;5100428;28;20226;-68
2023/10/12 00:27:22;;;;;;;5.22;4.78;;;;;;;11.89;62.49;95736.13;5100486;28;20207;-68
2023/10/12 00:29:53;;;;;;;5.55;5.00;;;;;;;11.91;62.23;95731.09;5100496;28;20207;-68
2023/10/12 00:32:20;;;;;;;5.30;4.80;;;;;;;11.94;62.31;95733.13;5099915;28;20234;-68
2023/10/12 00:34:47;;;;;;;6.30;4.82;;;;;;;11.91;61.98;95727.50;5100482;28;20196;-68
2023/10/12 00:37:16;;;;;;;5.40;4.72;;;;;;;11.88;62.16;95734.53;5117557;28;20206;-68
2023/10/12 00:39:47;;;;;;;6.68;4.82;;;;;;;11.81;62.19;95731.50;5101025;28;20231;-68
2023/10/12 00:42:17;;;;;;;6.63;4.70;;;;;;;11.81;62.48;95729.53;5100111;28;20203;-68
2023/10/12 00:44:52;;;;;;;5.43;5.00;;;;;;;11.85;62.96;95729.69;5099675;28;20254;-68
2023/10/12 00:47:43;;;;;;;6.07;5.47;;;;;;;11.83;62.80;95729.19;5100007;28;20210;-68
2023/10/12 00:50:11;;;;;;;5.50;4.93;;;;;;;11.78;63.32;95723.91;5117710;28;20191;-68
2023/10/12 00:52:55;;;;;;;5.60;5.13;;;;;;;11.80;63.14;95722.41;5099953;28;20192;-68
2023/10/12 00:55:35;;;;;;;5.43;4.93;;;;;;;11.79;62.71;95718.00;5100104;28;20195;-68
2023/10/12 00:58:08;;;;;;;6.88;5.15;;;;;;;11.76;62.68;95726.19;5117629;28;20184;-68
2023/10/12 01:00:43;;;;;;;7.03;5.28;;;;;;;11.70;62.97;95720.09;5099605;28;20283;-68
2023/10/12 01:09:18;;;;;;;5.50;4.85;;;;;;;11.75;63.48;95719.84;5041986;28;20191;-68
2023/10/12 01:11:58;;;;;;;4.97;4.35;;;;;;;11.76;63.38;95715.97;5100230;28;20196;-68
2023/10/12 01:14:29;;;;;;;5.32;4.80;;;;;;;11.77;63.29;95716.78;5117578;28;20184;-68
2023/10/12 01:16:58;;;;;;;6.82;4.65;;;;;;;11.75;63.36;95719.06;5099473;28;20290;-68
2023/10/12 01:19:31;;;;;;;5.35;4.68;;;;;;;11.76;63.70;95715.13;5117464;28;20508;-68
2023/10/12 01:22:12;;;;;;;5.88;5.05;;;;;;;11.75;63.58;95721.81;5099977;28;20231;-67
2023/10/12 01:24:44;;;;;;;6.32;4.50;;;;;;;11.74;63.04;95714.69;5117005;28;20207;-68
2023/10/12 01:27:14;;;;;;;5.57;4.55;;;;;;;11.70;63.32;95713.78;5099708;28;20302;-68
2023/10/12 01:29:43;;;;;;;5.00;4.60;;;;;;;11.67;63.55;95714.44;5117020;28;20260;-68
2023/10/12 01:32:24;;;;;;;6.40;4.75;;;;;;;11.64;63.34;95715.13;5103297;28;20301;-68
2023/10/12 01:34:52;;;;;;;8.50;6.70;;;;;;;11.62;63.35;95714.66;5096168;28;20608;-68
2023/10/12 01:37:23;;;;;;;7.15;6.40;;;;;;;11.64;63.65;95707.66;5096111;28;20192;-68
2023/10/12 01:40:10;;;;;;;8.43;7.13;;;;;;;11.63;63.03;95714.34;5078524;28;20683;-68
2023/10/12 01:42:49;;;;;;;9.57;6.80;;;;;;;11.59;63.29;95707.88;5096410;28;20184;-68
2023/10/12 01:45:31;;;;;;;7.82;6.10;;;;;;;11.56;63.69;95703.03;5079417;28;20255;-68
2023/10/12 01:48:07;;;;;;;6.78;5.85;;;;;;;11.52;63.72;95702.13;5095979;28;20184;-68
2023/10/12 01:50:37;;;;;;;6.93;5.68;;;;;;;11.46;63.78;95707.06;5096765;28;20521;-67
2023/10/12 01:53:17;;;;;;;6.80;5.07;;;;;;;11.42;63.76;95703.38;5078325;28;20602;-67
2023/10/12 01:55:46;;;;;;;6.65;5.63;;;;;;;11.43;63.63;95707.72;5078786;28;20200;-68
2023/10/12 01:58:16;;;;;;;5.55;5.03;;;;;;;11.41;63.43;95703.72;5096121;28;20189;-68
2023/10/12 02:00:51;;;;;;;5.57;5.07;;;;;;;11.38;63.53;95713.50;5078786;28;20188;-68
2023/10/12 02:03:31;;;;;;;6.07;4.78;;;;;;;11.39;63.85;95717.06;5078426;28;20653;-67
2023/10/12 02:06:13;;;;;;;5.25;4.68;;;;;;;11.42;63.71;95721.91;5078227;28;20212;-68
2023/10/12 02:08:49;;;;;;;6.35;4.80;;;;;;;11.43;63.40;95715.22;5077966;28;20199;-68
2023/10/12 02:11:37;;;;;;;5.90;5.15;;;;;;;11.39;63.64;95723.38;5078004;28;20207;-67
2023/10/12 02:14:05;;;;;;;6.40;5.07;;;;;;;11.39;64.04;95723.38;5077023;28;20596;-68
2023/10/12 02:16:31;;;;;;;5.00;4.40;;;;;;;11.39;64.04;95720.63;5077947;28;20215;-68
2023/10/12 02:19:00;;;;;;;6.03;4.88;;;;;;;11.37;63.83;95720.16;5078286;28;20227;-68
2023/10/12 02:21:29;;;;;;;5.78;4.70;;;;;;;11.33;64.15;95719.25;5077982;28;20192;-68
2023/10/12 02:24:11;;;;;;;5.95;4.75;;;;;;;11.32;63.83;95718.41;5077979;28;20199;-68
2023/10/12 02:26:52;;;;;;;6.93;5.50;;;;;;;11.29;64.08;95721.88;5077840;28;20295;-68
2023/10/12 02:29:21;;;;;;;6.15;4.60;;;;;;;11.26;64.02;95719.00;5078786;28;20200;-68
2023/10/12 02:31:58;;;;;;;5.60;5.10;;;;;;;11.23;64.38;95722.44;5088520;28;20267;-67
2023/10/12 02:34:53;;;;;;;5.22;4.72;;;;;;;11.18;64.19;95717.13;5097921;28;20200;-68
2023/10/12 02:37:21;;;;;;;5.25;4.75;;;;;;;11.18;64.62;95717.13;5098094;28;20206;-68
2023/10/12 02:39:53;;;;;;;5.35;4.82;;;;;;;11.18;64.41;95717.13;5098298;28;20199;-68
2023/10/12 02:42:22;;;;;;;5.22;4.72;;;;;;;11.15;64.29;95717.78;5098203;28;20210;-68
2023/10/12 02:45:08;;;;;;;6.93;5.25;;;;;;;11.11;64.62;95712.16;5098257;28;20212;-68
2023/10/12 02:47:40;;;;;;;5.95;5.35;;;;;;;11.15;64.50;95713.09;5098468;28;20234;-68
2023/10/12 02:53:08;;;;;;;5.90;5.00;;;;;;;11.05;64.67;95717.09;5094420;28;20389;-68
2023/10/12 02:55:48;;;;;;;5.35;4.85;;;;;;;11.07;64.58;95714.81;5097970;28;20199;-68
2023/10/12 02:58:20;;;;;;;6.20;5.20;;;;;;;11.08;64.58;95713.66;5097600;28;20192;-68
2023/10/12 03:00:55;;;;;;;5.38;4.70;;;;;;;11.08;64.87;95712.84;5098006;28;20203;-68
2023/10/12 03:03:27;;;;;;;6.40;4.95;;;;;;;11.06;64.65;95713.16;5098625;28;20190;-68
2023/10/12 03:06:01;;;;;;;6.03;5.43;;;;;;;11.05;64.41;95708.00;5098040;28;20276;-67
2023/10/12 03:08:35;;;;;;;5.75;5.25;;;;;;;11.02;64.57;95711.44;5097491;28;20633;-68
2023/10/12 03:11:12;;;;;;;6.43;5.18;;;;;;;10.97;64.39;95703.38;5097989;28;20607;-68
2023/10/12 03:13:55;;;;;;;6.40;5.03;;;;;;;10.88;64.79;95702.66;5097449;28;20206;-68
2023/10/12 03:16:23;;;;;;;7.53;5.18;;;;;;;10.88;64.57;95702.66;5098199;28;20299;-68
2023/10/12 03:19:00;;;;;;;6.57;5.13;;;;;;;10.88;64.43;95699.88;5097981;28;20192;-67
2023/10/12 03:21:33;;;;;;;7.45;5.57;;;;;;;10.83;64.32;95700.91;5097462;28;20207;-67
2023/10/12 03:24:05;;;;;;;7.35;5.75;;;;;;;10.81;64.47;95703.19;5097876;28;20194;-68
2023/10/12 03:26:39;;;;;;;6.68;5.45;;;;;;;10.74;64.53;95705.69;5101186;28;20222;-68
2023/10/12 03:29:18;;;;;;;6.57;5.88;;;;;;;10.73;64.53;95704.09;5101742;28;20188;-69
2023/10/12 03:31:58;;;;;;;7.72;5.10;;;;;;;10.65;64.39;95708.53;5101029;28;20296;-69
2023/10/12 03:37:15;;;;;;;6.60;5.70;;;;;;;10.57;65.14;95701.16;5096736;28;20662;-69
2023/10/12 03:39:58;;;;;;;9.27;5.47;;;;;;;10.57;65.21;95701.16;5101298;28;20542;-70
2023/10/12 03:42:42;;;;;;;6.15;5.55;;;;;;;10.53;65.41;95706.53;5119189;28;20175;-69
2023/10/12 03:45:24;;;;;;;6.05;5.55;;;;;;;10.50;66.11;95701.69;5101449;28;20215;-68
2023/10/12 03:48:03;;;;;;;7.65;5.30;;;;;;;10.52;66.05;95712.38;5118877;28;20626;-68
2023/10/12 03:50:53;;;;;;;6.40;5.28;;;;;;;10.53;65.49;95708.47;5102084;28;20201;-68
2023/10/12 03:53:26;;;;;;;5.85;5.25;;;;;;;10.53;65.38;95712.03;5101796;28;20205;-68
2023/10/12 03:55:58;;;;;;;9.38;5.35;;;;;;;10.54;65.62;95705.38;5101043;28;20256;-68
2023/10/12 03:58:38;;;;;;;7.07;5.97;;;;;;;10.54;65.84;95715.63;5101192;28;20290;-68
2023/10/12 04:01:12;;;;;;;6.32;5.45;;;;;;;10.51;65.91;95708.81;5118396;28;20589;-66
2023/10/12 04:03:44;;;;;;;8.23;5.65;;;;;;;10.51;66.33;95716.28;5100721;28;20183;-69
2023/10/12 04:06:23;;;;;;;6.10;5.50;;;;;;;10.49;66.50;95707.53;5101376;28;20230;-66
2023/10/12 04:08:53;;;;;;;9.05;6.22;;;;;;;10.51;66.24;95713.53;5100764;28;20237;-67
2023/10/12 04:11:47;;;;;;;7.05;6.35;;;;;;;10.51;66.32;95713.53;5100947;28;20199;-68
2023/10/12 04:17:09;;;;;;;8.38;5.95;;;;;;;10.50;66.19;95712.72;5118615;28;20183;-68
2023/10/12 04:19:43;;;;;;;7.57;6.28;;;;;;;10.52;66.20;95706.84;5100411;28;20217;-67
2023/10/12 04:22:25;;;;;;;10.48;7.13;;;;;;;10.52;66.25;95712.38;5100735;28;20199;-68
2023/10/12 04:24:54;;;;;;;12.40;7.65;;;;;;;10.48;65.60;95709.47;5100696;28;20223;-68
2023/10/12 04:27:41;;;;;;;13.75;8.00;;;;;;;10.45;65.48;95712.09;5101269;28;20294;-68
2023/10/12 04:30:35;;;;;;;11.05;8.38;;;;;;;10.41;65.48;95711.16;5100088;28;20199;-67
2023/10/12 04:33:17;;;;;;;12.38;8.40;;;;;;;10.39;65.33;95708.75;5118100;28;20180;-67
2023/10/12 04:36:09;;;;;;;10.43;7.43;;;;;;;10.39;65.09;95710.72;5100865;28;20195;-67
2023/10/12 04:41:52;;;;;;;10.65;8.05;;;;;;;10.35;65.65;95708.63;5099863;28;20644;-67
2023/10/12 04:47:19;;;;;;;12.07;7.55;;;;;;;10.31;65.18;95706.84;5094942;28;20195;-68
2023/10/12 04:49:57;;;;;;;9.60;6.93;;;;;;;10.28;65.16;95704.78;5118117;28;20215;-68
2023/10/12 04:52:40;;;;;;;12.05;7.40;;;;;;;10.24;65.58;95696.34;5117532;28;20188;-67
2023/10/12 04:55:21;;;;;;;12.50;7.68;;;;;;;10.20;65.83;95709.16;5117486;28;20199;-68
2023/10/12 04:58:10;;;;;;;11.10;7.40;;;;;;;10.20;65.94;95703.66;5099809;28;20196;-67
2023/10/12 05:01:12;;;;;;;15.23;7.80;;;;;;;10.16;65.80;95710.16;5117411;28;20225;-67
2023/10/12 05:04:05;;;;;;;14.70;7.78;;;;;;;10.12;66.02;95716.34;5117733;28;20180;-68
2023/10/12 05:06:35;;;;;;;13.20;8.20;;;;;;;10.12;66.51;95716.34;5099658;28;20306;-65
2023/10/12 05:09:11;;;;;;;12.25;7.25;;;;;;;10.11;66.78;95709.22;5099586;28;20549;-67
2023/10/12 05:11:42;;;;;;;11.38;7.53;;;;;;;10.13;66.87;95709.72;5117972;28;20183;-66
2023/10/12 05:14:15;;;;;;;20.13;8.75;;;;;;;10.18;66.96;95707.91;5099900;28;20203;-66
2023/10/12 05:16:45;;;;;;;16.45;8.05;;;;;;;10.21;67.16;95715.50;5099937;28;20192;-67
2023/10/12 05:19:15;;;;;;;10.82;7.40;;;;;;;10.23;67.14;95721.47;5099514;28;20209;-66
2023/10/12 05:21:44;;;;;;;9.50;7.40;;;;;;;10.24;67.46;95718.41;5117458;28;20278;-66
2023/10/12 05:24:14;;;;;;;11.77;7.90;;;;;;;10.28;67.47;95732.34;5117346;28;20192;-66
2023/10/12 05:26:52;;;;;;;11.48;7.80;;;;;;;10.30;67.32;95730.06;5098638;28;20223;-67
2023/10/12 05:29:35;;;;;;;8.75;7.70;;;;;;;10.35;67.42;95733.44;5117104;28;20175;-66
2023/10/12 05:32:06;;;;;;;13.75;7.60;;;;;;;10.38;67.14;95739.41;5104639;28;20301;-66
2023/10/12 05:34:53;;;;;;;9.52;6.40;;;;;;;10.39;67.50;95736.31;5096811;28;20203;-67
2023/10/12 05:37:38;;;;;;;10.63;6.25;;;;;;;10.42;67.50;95735.66;5096265;28;20189;-66
2023/10/12 05:40:14;;;;;;;10.00;6.13;;;;;;;10.47;67.58;95742.91;5078846;28;20204;-67
2023/10/12 05:42:46;;;;;;;8.82;6.97;;;;;;;10.49;67.39;95749.69;5096316;28;20200;-66
2023/10/12 05:45:22;;;;;;;8.30;6.78;;;;;;;10.54;67.65;95744.00;5078987;28;20220;-66
2023/10/12 05:47:55;;;;;;;12.93;8.82;;;;;;;10.56;67.58;95754.69;5078944;28;20192;-66
2023/10/12 05:50:30;;;;;;;12.10;7.43;;;;;;;10.56;67.66;95749.16;5078603;28;20196;-66
2023/10/12 05:53:03;;;;;;;10.60;7.68;;;;;;;10.60;67.66;95750.94;5078099;28;20291;-66
2023/10/12 05:55:33;;;;;;;13.20;7.72;;;;;;;10.66;67.43;95750.72;5078607;28;20193;-66
2023/10/12 05:58:11;;;;;;;10.27;6.85;;;;;;;10.68;67.38;95749.25;5077543;28;20230;-66
2023/10/12 06:00:44;;;;;;;8.60;7.20;;;;;;;10.70;67.08;95746.13;5070622;28;20211;-66
2023/10/12 06:03:20;;;;;;;8.40;6.30;;;;;;;10.75;67.22;95743.19;5078277;28;20599;-66
2023/10/12 06:05:56;;;;;;;9.20;6.63;;;;;;;10.78;66.91;95742.50;5079085;28;20216;-66
2023/10/12 06:08:28;;;;;;;9.65;6.00;;;;;;;10.81;66.98;95742.63;5078214;28;20195;-67
2023/10/12 06:10:59;;;;;;;9.20;6.10;;;;;;;10.84;66.90;95746.66;5078594;28;20196;-66
2023/10/12 06:13:32;;;;;;;8.20;6.10;;;;;;;10.82;66.64;95747.03;5078184;28;20193;-66
2023/10/12 06:16:03;;;;;;;8.50;6.22;;;;;;;10.84;66.94;95744.72;5078211;28;20199;-66
2023/10/12 06:18:31;;;;;;;6.45;5.70;;;;;;;10.88;66.66;95744.84;5078036;28;20200;-66
2023/10/12 06:21:06;;;;;;;8.25;6.18;;;;;;;10.89;66.94;95742.88;5078474;28;20630;-66
2023/10/12 06:23:39;;;;;;;9.25;6.30;;;;;;;10.93;66.85;95744.66;5077359;28;20292;-66
2023/10/12 06:26:28;;;;;;;8.43;5.93;;;;;;;10.97;66.67;95740.06;5078180;28;20567;-66
2023/10/12 06:29:00;;;;;;;9.60;5.90;;;;;;;11.03;66.78;95735.94;5077582;28;20227;-66
2023/10/12 06:31:33;;;;;;;7.18;6.43;;;;;;;11.06;66.72;95740.78;5084599;28;20219;-67
2023/10/12 06:34:10;;;;;;;10.38;6.00;;;;;;;11.09;66.43;95747.56;5098879;28;20206;-66
2023/10/12 06:36:42;;;;;;;7.30;5.90;;;;;;;11.18;66.30;95740.00;5098699;28;20201;-66
2023/10/12 06:42:09;;;;;;;7.78;6.03;;;;;;;11.30;66.14;95742.81;5068182;28;20627;-66
2023/10/12 06:44:40;;;;;;;8.13;5.95;;;;;;;11.37;65.86;95749.75;5081421;28;20211;-66
2023/10/12 06:50:00;;;;;;;9.48;5.65;;;;;;;11.50;65.63;95745.84;5098762;28;20215;-66
2023/10/12 06:52:34;;;;;;;11.68;6.07;;;;;;;11.55;65.54;95746.44;5115655;28;20253;-66
2023/10/12 06:55:08;;;;;;;9.98;6.60;;;;;;;11.68;65.39;95750.03;5097440;28;20195;-66
2023/10/12 06:57:54;;;;;;;8.68;6.07;;;;;;;11.78;65.20;95748.78;5098331;28;20518;-67
2023/10/12 07:00:34;;;;;;;7.18;5.80;;;;;;;11.87;64.80;95745.91;5099289;28;20203;-66
2023/10/12 07:03:09;;;;;;;8.00;5.85;;;;;;;11.94;64.83;95746.16;5102733;28;20269;-66
2023/10/12 07:05:44;;;;;;;7.60;5.75;;;;;;;12.03;64.19;95744.09;5102408;28;20215;-66
2023/10/12 07:08:21;;;;;;;6.10;5.50;;;;;;;12.13;64.25;95748.34;5102737;28;20243;-66
2023/10/12 07:11:00;;;;;;;7.63;6.05;;;;;;;12.21;64.18;95747.44;5119565;28;20183;-66
2023/10/12 07:13:32;;;;;;;6.45;5.75;;;;;;;12.33;63.99;95755.72;5102164;28;20199;-66
2023/10/12 07:16:01;;;;;;;6.05;5.45;;;;;;;12.42;63.71;95753.63;5119549;28;20211;-66
2023/10/12 07:18:29;;;;;;;8.32;6.00;;;;;;;12.45;63.13;95750.16;5085293;28;20210;-66
2023/10/12 07:20:56;;;;;;;7.30;5.75;;;;;;;12.53;63.17;95746.47;5102082;28;20206;-66
2023/10/12 07:23:35;;;;;;;7.20;5.88;;;;;;;12.60;63.00;95748.66;5119532;28;20211;-66
2023/10/12 07:26:12;;;;;;;6.47;5.80;;;;;;;12.68;62.80;95757.97;5101933;28;20219;-66
2023/10/12 07:28:41;;;;;;;6.93;6.18;;;;;;;12.81;62.54;95747.66;5102270;28;20215;-67
2023/10/12 07:31:40;;;;;;;6.45;5.85;;;;;;;12.90;62.63;95745.56;5101381;28;20232;-66
2023/10/12 07:34:15;;;;;;;7.63;6.72;;;;;;;13.06;62.66;95740.06;5101895;28;20241;-66
2023/10/12 07:39:50;;;;;;;17.58;7.55;;;;;;;13.33;61.94;95735.72;5093369;27;20615;-66
2023/10/12 07:42:25;;;;;;;6.38;5.75;;;;;;;13.49;61.78;95736.53;5092460;28;20279;-66
2023/10/12 07:44:59;;;;;;;7.07;5.68;;;;;;;13.68;61.70;95742.19;5092100;28;20196;-66
2023/10/12 07:47:40;;;;;;;10.65;6.90;;;;;;;13.77;61.15;95741.22;5092196;28;20192;-66
2023/10/12 07:50:13;;;;;;;7.88;6.82;;;;;;;13.79;61.04;95736.13;5092359;28;20200;-66
2023/10/12 07:52:46;;;;;;;9.13;6.20;;;;;;;13.79;60.40;95738.88;5091729;28;20578;-68
2023/10/12 07:55:19;;;;;;;8.60;6.38;;;;;;;13.82;60.74;95743.72;5091666;28;20223;-67
2023/10/12 07:57:50;;;;;;;6.88;6.10;;;;;;;13.87;60.47;95741.50;5091323;28;20224;-67
2023/10/12 08:00:41;;;;;;;8.57;6.50;;;;;;;13.95;60.33;95728.63;5091835;28;20291;-67
2023/10/12 08:03:19;;;;;;;7.15;6.45;;;;;;;14.04;59.82;95734.75;5091254;28;20211;-67
2023/10/12 08:06:00;;;;;;;7.15;6.18;;;;;;;14.06;59.44;95734.41;5091179;28;20211;-67
2023/10/12 08:08:39;;;;;;;10.70;7.18;;;;;;;14.10;59.62;95732.53;5091438;28;20196;-67
2023/10/12 08:11:27;;;;;;;7.68;6.90;;;;;;;14.16;59.28;95719.97;5092286;28;20253;-68
2023/10/12 08:13:56;;;;;;;8.18;7.35;;;;;;;14.24;59.11;95719.00;5092132;28;20201;-67
2023/10/12 08:16:28;;;;;;;7.05;6.35;;;;;;;14.28;58.44;95724.63;5092062;28;20204;-67
2023/10/12 08:21:43;;;;;;;10.73;7.18;;;;;;;14.42;58.72;95714.66;5090533;28;20206;-67
2023/10/12 08:24:22;;;;;;;9.35;7.45;;;;;;;14.60;58.89;95711.53;5091683;28;20197;-67
2023/10/12 08:27:05;;;;;;;8.52;6.80;;;;;;;14.75;58.32;95709.84;5091330;28;20249;-67
2023/10/12 08:32:34;;;;;;;7.07;5.63;;;;;;;14.91;56.95;95697.50;5090690;28;20525;-67
2023/10/12 08:40:54;;;;;;;11.65;7.75;;;;;;;15.14;56.55;95691.19;5091274;28;20192;-66
2023/10/12 08:50:01;;;;;;;11.57;8.45;;;;;;;15.75;55.23;95686.78;5096119;27;20607;-66
2023/10/12 08:52:30;;;;;;;11.43;8.57;;;;;;;15.85;53.79;95678.63;5092565;28;20200;-66
2023/10/12 08:55:03;;;;;;;10.40;8.18;;;;;;;15.96;54.67;95675.22;5092717;28;20196;-66
2023/10/12 08:57:43;;;;;;;9.57;8.07;;;;;;;16.13;54.44;95669.94;5092336;28;20207;-67
2023/10/12 09:00:39;;;;;;;10.77;7.78;;;;;;;16.37;53.00;95667.88;5126418;28;20192;-66
2023/10/12 09:03:24;;;;;;;13.65;9.00;;;;;;;16.43;52.23;95660.00;5091374;28;20195;-67
2023/10/12 09:05:58;;;;;;;13.77;9.18;;;;;;;16.55;53.26;95663.34;5092403;28;20232;-66
2023/10/12 09:08:41;;;;;;;11.48;9.10;;;;;;;16.53;52.59;95651.81;5092338;28;20239;-66
2023/10/12 09:11:19;;;;;;;11.52;8.85;;;;;;;16.58;52.51;95653.44;5092510;28;20181;-66
2023/10/12 09:13:47;;;;;;;8.40;7.10;;;;;;;16.69;52.65;95654.38;5076923;28;20215;-66
2023/10/12 09:16:17;;;;;;;9.70;6.90;;;;;;;16.79;51.89;95648.19;5091638;28;20201;-66
2023/10/12 09:18:44;;;;;;;9.40;7.70;;;;;;;16.87;51.05;95648.28;5092295;28;20200;-66
2023/10/12 09:21:29;;;;;;;7.72;6.90;;;;;;;16.85;51.95;95637.53;5092149;28;20606;-67
2023/10/12 09:24:15;;;;;;;9.63;7.07;;;;;;;16.98;52.76;95633.28;5092399;28;20192;-67
2023/10/12 09:26:57;;;;;;;8.82;7.68;;;;;;;16.97;51.28;95630.91;5092647;28;20196;-67
2023/10/12 09:29:28;;;;;;;10.73;7.65;;;;;;;17.08;52.17;95620.66;5090644;28;20224;-67
2023/10/12 09:37:43;;;;;;;8.02;7.18;;;;;;;17.62;50.10;95610.03;5091258;28;20517;-68
2023/10/12 09:40:27;;;;;;;9.55;7.72;;;;;;;17.83;49.04;95606.63;5091314;28;20207;-66
2023/10/12 09:42:59;;;;;;;8.18;7.22;;;;;;;17.93;49.19;95603.13;5091675;28;20188;-66
2023/10/12 09:45:33;;;;;;;8.27;6.95;;;;;;;18.03;49.46;95594.03;5092147;28;20326;-66
2023/10/12 09:48:05;;;;;;;11.90;7.45;;;;;;;18.03;49.14;95589.25;5091019;28;20643;-66
2023/10/12 09:50:35;;;;;;;9.88;7.85;;;;;;;18.08;48.88;95581.69;5092086;28;20224;-66
2023/10/12 09:53:14;;;;;;;12.27;7.40;;;;;;;18.11;49.12;95581.72;5093667;28;20196;-66
2023/10/12 09:56:02;;;;;;;7.75;7.05;;;;;;;18.15;49.29;95570.56;5091840;28;20253;-66
2023/10/12 09:58:33;;;;;;;10.88;7.65;;;;;;;18.23;48.32;95567.44;5091462;28;20242;-66
2023/10/12 10:01:07;;;;;;;9.57;7.90;;;;;;;18.33;48.04;95559.50;5077787;28;20207;-66
2023/10/12 10:03:47;;;;;;;11.95;7.95;;;;;;;18.42;48.10;95557.97;5112131;28;20192;-66
2023/10/12 10:06:37;;;;;;;13.35;8.07;;;;;;;18.53;47.93;95547.63;5078181;28;20200;-67
2023/10/12 10:09:37;;;;;;;9.68;7.57;;;;;;;18.58;48.44;95540.88;5077734;28;20219;-66
2023/10/12 10:12:08;;;;;;;8.65;7.78;;;;;;;18.79;47.21;95547.75;5078019;28;20201;-66
2023/10/12 10:14:44;;;;;;;11.98;8.18;;;;;;;18.89;46.66;95545.00;5078331;28;20193;-66
2023/10/12 10:17:15;;;;;;;9.65;7.90;;;;;;;19.00;46.57;95556.22;5078499;28;20188;-66
2023/10/12 10:19:51;;;;;;;9.18;8.02;;;;;;;19.06;45.68;95543.41;5077768;28;20201;-66
2023/10/12 10:22:21;;;;;;;12.70;8.45;;;;;;;19.15;45.72;95538.25;5077967;28;20292;-67
2023/10/12 10:24:55;;;;;;;9.63;7.50;;;;;;;19.16;46.34;95534.25;5077888;28;20224;-67
2023/10/12 10:27:34;;;;;;;9.63;7.40;;;;;;;19.17;45.74;95535.06;5077925;28;20202;-66
2023/10/12 10:30:24;;;;;;;8.35;7.45;;;;;;;19.27;44.67;95537.06;5077947;28;20244;-66
2023/10/12 10:33:12;;;;;;;11.70;8.07;;;;;;;19.25;45.54;95536.69;5077600;28;20221;-66
2023/10/12 10:35:59;;;;;;;13.45;8.30;;;;;;;19.36;45.12;95526.31;5076975;28;20236;-66
2023/10/12 10:38:32;;;;;;;10.07;8.98;;;;;;;19.39;45.31;95519.91;5077470;28;20196;-67
2023/10/12 10:41:18;;;;;;;13.23;9.10;;;;;;;19.33;45.65;95515.13;5077572;28;20567;-67
2023/10/12 10:43:47;;;;;;;9.73;7.70;;;;;;;19.40;45.71;95509.53;5077708;28;20197;-66
2023/10/12 10:46:17;;;;;;;8.90;7.78;;;;;;;19.59;45.05;95499.91;5077029;28;20283;-66
2023/10/12 10:48:49;;;;;;;10.60;7.80;;;;;;;19.71;44.84;95502.31;5076855;28;20295;-66
2023/10/12 10:51:19;;;;;;;7.85;6.97;;;;;;;19.84;44.57;95497.91;5077019;28;20193;-66
2023/10/12 10:53:51;;;;;;;10.07;8.25;;;;;;;19.91;44.03;95494.31;5077773;28;20231;-66
2023/10/12 10:56:37;;;;;;;10.02;7.85;;;;;;;19.96;43.62;95486.28;5077070;28;20609;-66
2023/10/12 10:59:07;;;;;;;8.98;7.25;;;;;;;19.99;43.69;95481.88;5077284;28;20201;-67
2023/10/12 11:01:41;;;;;;;10.50;7.07;;;;;;;20.05;43.60;95473.88;5077114;28;20211;-66
2023/10/12 11:04:10;;;;;;;10.45;7.53;;;;;;;20.13;43.93;95469.84;5076795;28;20204;-66
2023/10/12 11:06:39;;;;;;;9.75;7.28;;;;;;;20.18;42.95;95461.81;5076652;28;20212;-66
2023/10/12 11:09:09;;;;;;;10.23;7.53;;;;;;;20.29;43.21;95455.38;5076426;28;20278;-66
2023/10/12 11:11:37;;;;;;;9.25;7.15;;;;;;;20.36;43.43;95452.53;5075563;28;20201;-67
2023/10/12 11:14:05;;;;;;;12.18;7.20;;;;;;;20.46;43.12;95445.31;5076660;28;20197;-66
2023/10/12 11:16:34;;;;;;;10.40;7.35;;;;;;;20.53;43.08;95439.69;5075997;28;20251;-66
2023/10/12 11:19:01;;;;;;;10.13;6.70;;;;;;;20.58;42.69;95434.44;5077365;28;20201;-66
2023/10/12 11:21:30;;;;;;;9.00;7.10;;;;;;;20.54;42.82;95438.47;5076448;28;20216;-66
2023/10/12 11:24:02;;;;;;;8.73;6.53;;;;;;;20.54;42.49;95433.69;5075701;28;20206;-67
2023/10/12 11:26:39;;;;;;;8.25;6.93;;;;;;;20.61;42.35;95428.03;5076873;28;20205;-66
2023/10/12 11:29:11;;;;;;;8.70;6.35;;;;;;;20.62;42.79;95423.22;5076454;28;20286;-66
2023/10/12 11:31:39;;;;;;;8.70;6.07;;;;;;;20.66;42.95;95422.00;5075591;28;20204;-66
2023/10/12 11:34:11;;;;;;;8.70;6.55;;;;;;;20.73;42.21;95414.75;5075495;28;20207;-67
2023/10/12 11:36:40;;;;;;;9.02;6.55;;;;;;;20.76;42.02;95422.34;5076092;28;20605;-66
2023/10/12 11:39:16;;;;;;;11.60;6.93;;;;;;;20.82;42.15;95413.09;5075704;28;20281;-66
2023/10/12 11:42:04;;;;;;;11.32;6.75;;;;;;;20.83;41.65;95399.88;5076589;28;20193;-66
2023/10/12 11:44:42;;;;;;;9.70;6.53;;;;;;;20.79;41.73;95404.69;5110355;28;20193;-66
2023/10/12 11:47:13;;;;;;;7.97;6.80;;;;;;;20.76;41.76;95397.91;5075731;28;20204;-70
2023/10/12 11:49:55;;;;;;;7.25;6.50;;;;;;;20.72;41.69;95399.94;5076099;28;20224;-66
2023/10/12 11:52:29;;;;;;;7.28;6.45;;;;;;;20.78;41.51;95395.50;5075964;28;20261;-66
2023/10/12 11:55:18;;;;;;;9.45;6.32;;;;;;;20.81;41.94;95396.69;5075621;28;20193;-66
2023/10/12 11:57:48;;;;;;;10.13;6.53;;;;;;;20.86;42.23;95394.22;5076023;28;20262;-66
2023/10/12 12:00:29;;;;;;;8.38;6.13;;;;;;;20.86;41.63;95385.03;5075479;28;20204;-66
2023/10/12 12:03:02;;;;;;;10.10;6.30;;;;;;;20.82;42.18;95381.47;5075576;28;20185;-66
2023/10/12 12:05:36;;;;;;;6.47;5.80;;;;;;;20.91;41.74;95381.78;5075822;28;20272;-66
2023/10/12 12:08:08;;;;;;;8.52;6.22;;;;;;;20.95;41.33;95385.34;5075372;28;20250;-66
2023/10/12 12:10:46;;;;;;;10.38;6.43;;;;;;;20.96;41.56;95377.75;5075351;28;20204;-66
2023/10/12 12:13:20;;;;;;;8.80;5.72;;;;;;;20.98;41.53;95370.50;5075421;28;20203;-66
2023/10/12 12:15:55;;;;;;;9.18;5.85;;;;;;;21.00;41.14;95370.91;5075106;28;20204;-66
2023/10/12 12:18:27;;;;;;;10.65;6.45;;;;;;;21.00;41.09;95373.69;5076144;28;20243;-66
2023/10/12 12:21:03;;;;;;;7.97;6.07;;;;;;;20.97;41.48;95360.50;5076301;28;20192;-66
2023/10/12 12:23:36;;;;;;;11.07;6.82;;;;;;;21.01;41.04;95364.06;5108886;28;20192;-66
2023/10/12 12:26:08;;;;;;;6.55;5.63;;;;;;;21.01;41.52;95363.28;5075684;28;20506;-66
2023/10/12 12:28:44;;;;;;;6.55;5.75;;;;;;;21.00;41.33;95359.69;5074956;28;20216;-66
2023/10/12 12:31:15;;;;;;;8.93;5.60;;;;;;;21.03;41.18;95360.88;5074941;28;20613;-66
2023/10/12 12:33:46;;;;;;;7.13;5.25;;;;;;;21.04;41.43;95354.84;5074710;28;20188;-66
2023/10/12 12:36:21;;;;;;;9.95;6.10;;;;;;;21.08;41.12;95352.78;5075811;28;20193;-66
2023/10/12 12:38:57;;;;;;;6.40;5.50;;;;;;;21.13;40.34;95348.75;5075463;28;20199;-67
2023/10/12 12:41:29;;;;;;;8.85;5.57;;;;;;;21.14;40.70;95341.94;5075341;28;20193;-66
2023/10/12 12:43:58;;;;;;;9.18;5.88;;;;;;;21.11;41.01;95346.38;5075695;28;20220;-66
2023/10/12 12:46:33;;;;;;;6.97;5.32;;;;;;;21.15;40.44;95347.13;5109539;28;20201;-66
2023/10/12 12:49:03;;;;;;;6.72;5.38;;;;;;;21.14;41.22;95347.56;5074658;28;20228;-66
2023/10/12 12:51:38;;;;;;;7.25;5.15;;;;;;;21.13;40.62;95341.16;5074737;28;20262;-66
2023/10/12 12:54:12;;;;;;;9.65;5.70;;;;;;;21.20;41.00;95343.06;5074949;28;20189;-66
2023/10/12 12:56:42;;;;;;;8.75;4.65;;;;;;;21.24;40.89;95337.41;5075047;28;20634;-66
2023/10/12 12:59:11;;;;;;;7.70;5.45;;;;;;;21.23;40.89;95331.03;5075737;28;20217;-66
2023/10/12 13:01:41;;;;;;;6.57;5.40;;;;;;;21.24;41.25;95326.19;5074936;28;20204;-66
2023/10/12 13:04:14;;;;;;;7.32;5.50;;;;;;;21.25;40.70;95320.19;5074825;28;20266;-66